메인 페이지
METAR-TAF:

METAR-TAF

공항 :

애빌린, 텍사스, 미국

위도: 32-25-12N, 경도: 099-51-25W, 고도: 545m

현재 날씨관측

예보는 21분 전, 22:56시(UTC)에 발표되었습니다.
14kt
온도 13°C
습도 67%
기압 1013 hPa
시정: 16.1km
고도 1300ft 상공 흐림

METAR: KDYS 252256Z AUTO 35014KT 10SM OVC013 13/07 A2990 RMK AO2 CIG 012 RWY16 SLP108 T01290073

시각: 18:17 (23:17 UTC)

예보

예보는 30분 전, 22:47시(UTC)에 발표되었습니다.
예보 대상 시간: 25일 22시부터 26일 22시까지 (UTC)
12kt, 순간 최대 풍속 18kt
시정 10km 이상
고도 1200ft 상공 구름 많음
전환 중
26일 02시부터 26일 03시까지 (UTC)
북북동12kt, 순간 최대 풍속 18kt
시정 10km 이상
고도 1000ft 상공 흐림
전환 중
26일 07시부터 26일 08시까지 (UTC)
12kt, 순간 최대 풍속 18kt
시정: 9000m
고도 600ft 상공 흐림
약한비
일시적
26일 13시부터 26일 15시까지 (UTC)
15kt, 순간 최대 풍속 25kt
시정: 8000m
고도 500ft 상공 흐림, 적란운.
뇌우, 약한비

TAF: KDYS 252247Z 2522/2622 35012G18KT 9999 BKN012 QNH2983INS BECMG 2602/2603 02012G18KT 9999 OVC010 QNH2992INS BECMG 2607/2608 01012G18KT 9000 -RA OVC006 QNH2995INS TEMPO 2613/2615 36015G25KT 8000 -TSRA OVC005CB TX13/2522Z TN06/2615Z

4,000개 이상의 공항 관측 자료 및 예보 (METAR 및 TAF 보고).

지도상에서 검색 가능한 기상관측소가 노란 점과 빨간 점으로 표시되어 있습니다.

기상관측소 명을 보려면 표시 위로 마우스를 이동하세요.

날씨 관측과 예보를 보려면 클릭하세요.

지도 변경 : 확대하려면 엑스 표시가 있는 녹색 버튼, 축소하려면 빼기 표시가 있는 녹색 버튼, 다음 페이지의 지도를 보려면 녹색 화살표를 클릭하세요.


METAR-TAF: